sensor_id;sensor_type;location;lat;lon;timestamp;P1;durP1;ratioP1;P2;durP2;ratioP2
22131;SDS011;11232;51.748;19.390;2023-07-24T00:02:14;7.35;;;4.35;;
22131;SDS011;11232;51.748;19.390;2023-07-24T00:04:40;7.90;;;4.50;;
22131;SDS011;11232;51.748;19.390;2023-07-24T00:07:06;8.68;;;4.07;;
22131;SDS011;11232;51.748;19.390;2023-07-24T00:09:32;5.95;;;3.97;;
22131;SDS011;11232;51.748;19.390;2023-07-24T00:11:58;6.97;;;4.15;;
22131;SDS011;11232;51.748;19.390;2023-07-24T00:14:24;8.98;;;4.13;;
22131;SDS011;11232;51.748;19.390;2023-07-24T00:16:50;8.20;;;4.22;;
22131;SDS011;11232;51.748;19.390;2023-07-24T00:19:16;6.57;;;4.50;;
22131;SDS011;11232;51.748;19.390;2023-07-24T00:21:42;8.60;;;3.90;;
22131;SDS011;11232;51.748;19.390;2023-07-24T00:24:08;13.02;;;4.15;;
22131;SDS011;11232;51.748;19.390;2023-07-24T00:26:34;6.75;;;4.05;;
22131;SDS011;11232;51.748;19.390;2023-07-24T00:29:00;9.25;;;4.18;;
22131;SDS011;11232;51.748;19.390;2023-07-24T00:31:26;6.10;;;3.83;;
22131;SDS011;11232;51.748;19.390;2023-07-24T00:33:52;7.47;;;4.05;;
22131;SDS011;11232;51.748;19.390;2023-07-24T00:36:18;8.38;;;4.10;;
22131;SDS011;11232;51.748;19.390;2023-07-24T00:38:44;6.60;;;4.38;;
22131;SDS011;11232;51.748;19.390;2023-07-24T00:41:10;6.65;;;4.15;;
22131;SDS011;11232;51.748;19.390;2023-07-24T00:43:35;9.05;;;4.45;;
22131;SDS011;11232;51.748;19.390;2023-07-24T00:46:02;15.68;;;4.13;;
22131;SDS011;11232;51.748;19.390;2023-07-24T00:48:28;7.88;;;4.13;;
22131;SDS011;11232;51.748;19.390;2023-07-24T00:50:54;6.70;;;4.60;;
22131;SDS011;11232;51.748;19.390;2023-07-24T00:53:20;8.68;;;4.45;;
22131;SDS011;11232;51.748;19.390;2023-07-24T00:55:46;8.90;;;4.03;;
22131;SDS011;11232;51.748;19.390;2023-07-24T00:58:12;6.03;;;3.60;;
22131;SDS011;11232;51.748;19.390;2023-07-24T01:00:38;11.18;;;4.13;;
22131;SDS011;11232;51.748;19.390;2023-07-24T01:03:05;6.30;;;4.30;;
22131;SDS011;11232;51.748;19.390;2023-07-24T01:05:31;6.30;;;4.15;;
22131;SDS011;11232;51.748;19.390;2023-07-24T01:07:57;5.10;;;3.70;;
22131;SDS011;11232;51.748;19.390;2023-07-24T01:10:23;10.15;;;4.03;;
22131;SDS011;11232;51.748;19.390;2023-07-24T01:17:54;6.95;;;3.88;;
22131;SDS011;11232;51.748;19.390;2023-07-24T01:20:22;6.93;;;4.20;;
22131;SDS011;11232;51.748;19.390;2023-07-24T01:23:13;7.82;;;4.20;;
22131;SDS011;11232;51.748;19.390;2023-07-24T01:28:21;7.63;;;4.10;;
22131;SDS011;11232;51.748;19.390;2023-07-24T01:30:47;10.48;;;4.10;;
22131;SDS011;11232;51.748;19.390;2023-07-24T01:33:13;4.88;;;3.70;;
22131;SDS011;11232;51.748;19.390;2023-07-24T01:35:39;13.30;;;4.50;;
22131;SDS011;11232;51.748;19.390;2023-07-24T01:38:06;8.82;;;3.97;;
22131;SDS011;11232;51.748;19.390;2023-07-24T01:40:32;11.55;;;4.15;;
22131;SDS011;11232;51.748;19.390;2023-07-24T01:42:58;19.40;;;4.53;;
22131;SDS011;11232;51.748;19.390;2023-07-24T01:45:24;6.60;;;3.55;;
22131;SDS011;11232;51.748;19.390;2023-07-24T01:47:50;8.57;;;3.85;;
22131;SDS011;11232;51.748;19.390;2023-07-24T01:50:16;8.65;;;3.80;;
22131;SDS011;11232;51.748;19.390;2023-07-24T01:52:42;5.03;;;3.80;;
22131;SDS011;11232;51.748;19.390;2023-07-24T01:55:10;5.03;;;3.72;;
22131;SDS011;11232;51.748;19.390;2023-07-24T01:57:36;7.55;;;3.70;;
22131;SDS011;11232;51.748;19.390;2023-07-24T02:00:02;6.22;;;3.40;;
22131;SDS011;11232;51.748;19.390;2023-07-24T02:02:28;8.25;;;4.28;;
22131;SDS011;11232;51.748;19.390;2023-07-24T02:04:54;10.30;;;3.63;;
22131;SDS011;11232;51.748;19.390;2023-07-24T02:07:20;5.93;;;3.53;;
22131;SDS011;11232;51.748;19.390;2023-07-24T02:09:46;4.53;;;3.40;;
22131;SDS011;11232;51.748;19.390;2023-07-24T02:12:12;9.43;;;3.70;;
22131;SDS011;11232;51.748;19.390;2023-07-24T02:14:38;6.25;;;3.85;;
22131;SDS011;11232;51.748;19.390;2023-07-24T02:17:04;6.20;;;3.45;;
22131;SDS011;11232;51.748;19.390;2023-07-24T02:19:30;6.00;;;3.83;;
22131;SDS011;11232;51.748;19.390;2023-07-24T02:21:56;6.47;;;3.67;;
22131;SDS011;11232;51.748;19.390;2023-07-24T02:24:22;6.75;;;3.40;;
22131;SDS011;11232;51.748;19.390;2023-07-24T02:26:48;6.15;;;3.88;;
22131;SDS011;11232;51.748;19.390;2023-07-24T02:29:14;6.57;;;3.85;;
22131;SDS011;11232;51.748;19.390;2023-07-24T02:31:40;5.53;;;3.67;;
22131;SDS011;11232;51.748;19.390;2023-07-24T02:34:06;8.35;;;3.42;;
22131;SDS011;11232;51.748;19.390;2023-07-24T02:36:32;5.35;;;3.55;;
22131;SDS011;11232;51.748;19.390;2023-07-24T02:38:58;7.18;;;4.05;;
22131;SDS011;11232;51.748;19.390;2023-07-24T02:41:24;7.07;;;4.05;;
22131;SDS011;11232;51.748;19.390;2023-07-24T02:43:50;6.88;;;3.92;;
22131;SDS011;11232;51.748;19.390;2023-07-24T02:46:16;10.82;;;3.95;;
22131;SDS011;11232;51.748;19.390;2023-07-24T02:48:42;8.93;;;4.00;;
22131;SDS011;11232;51.748;19.390;2023-07-24T02:51:08;6.68;;;3.97;;
22131;SDS011;11232;51.748;19.390;2023-07-24T02:53:33;4.85;;;3.72;;
22131;SDS011;11232;51.748;19.390;2023-07-24T02:56:00;8.18;;;3.92;;
22131;SDS011;11232;51.748;19.390;2023-07-24T02:58:27;6.05;;;4.00;;
22131;SDS011;11232;51.748;19.390;2023-07-24T03:00:53;5.82;;;4.30;;
22131;SDS011;11232;51.748;19.390;2023-07-24T03:03:19;6.57;;;4.00;;
22131;SDS011;11232;51.748;19.390;2023-07-24T03:05:45;6.40;;;4.13;;
22131;SDS011;11232;51.748;19.390;2023-07-24T03:08:11;6.97;;;3.92;;
22131;SDS011;11232;51.748;19.390;2023-07-24T03:10:39;8.18;;;4.30;;
22131;SDS011;11232;51.748;19.390;2023-07-24T03:13:05;5.15;;;3.65;;
22131;SDS011;11232;51.748;19.390;2023-07-24T03:15:31;4.70;;;3.67;;
22131;SDS011;11232;51.748;19.390;2023-07-24T03:17:58;7.30;;;3.97;;
22131;SDS011;11232;51.748;19.390;2023-07-24T03:20:24;14.07;;;4.30;;
22131;SDS011;11232;51.748;19.390;2023-07-24T03:22:49;6.90;;;3.78;;
22131;SDS011;11232;51.748;19.390;2023-07-24T03:25:15;9.18;;;3.90;;
22131;SDS011;11232;51.748;19.390;2023-07-24T03:27:41;10.43;;;3.97;;
22131;SDS011;11232;51.748;19.390;2023-07-24T03:30:07;11.68;;;4.82;;
22131;SDS011;11232;51.748;19.390;2023-07-24T03:32:35;9.20;;;4.55;;
22131;SDS011;11232;51.748;19.390;2023-07-24T03:35:01;6.20;;;3.50;;
22131;SDS011;11232;51.748;19.390;2023-07-24T03:37:27;4.55;;;3.47;;
22131;SDS011;11232;51.748;19.390;2023-07-24T03:39:53;7.40;;;3.75;;
22131;SDS011;11232;51.748;19.390;2023-07-24T03:42:29;6.05;;;3.90;;
22131;SDS011;11232;51.748;19.390;2023-07-24T03:44:56;6.60;;;4.00;;
22131;SDS011;11232;51.748;19.390;2023-07-24T03:47:22;6.60;;;4.30;;
22131;SDS011;11232;51.748;19.390;2023-07-24T03:49:49;8.13;;;4.10;;
22131;SDS011;11232;51.748;19.390;2023-07-24T03:52:15;8.55;;;3.92;;
22131;SDS011;11232;51.748;19.390;2023-07-24T03:54:41;5.65;;;3.40;;
22131;SDS011;11232;51.748;19.390;2023-07-24T03:57:07;6.03;;;4.22;;
22131;SDS011;11232;51.748;19.390;2023-07-24T03:59:33;10.25;;;4.43;;
22131;SDS011;11232;51.748;19.390;2023-07-24T04:01:59;5.72;;;3.85;;
22131;SDS011;11232;51.748;19.390;2023-07-24T04:04:25;6.60;;;3.92;;
22131;SDS011;11232;51.748;19.390;2023-07-24T04:06:51;10.15;;;4.70;;
22131;SDS011;11232;51.748;19.390;2023-07-24T04:09:17;8.05;;;4.90;;
22131;SDS011;11232;51.748;19.390;2023-07-24T04:11:43;8.68;;;3.95;;
22131;SDS011;11232;51.748;19.390;2023-07-24T04:14:09;7.10;;;4.32;;
22131;SDS011;11232;51.748;19.390;2023-07-24T04:16:36;7.47;;;4.57;;
22131;SDS011;11232;51.748;19.390;2023-07-24T04:19:02;7.70;;;4.03;;
22131;SDS011;11232;51.748;19.390;2023-07-24T04:21:28;6.47;;;3.80;;
22131;SDS011;11232;51.748;19.390;2023-07-24T04:23:54;6.60;;;4.43;;
22131;SDS011;11232;51.748;19.390;2023-07-24T04:26:20;8.82;;;4.43;;
22131;SDS011;11232;51.748;19.390;2023-07-24T04:28:46;9.65;;;4.20;;
22131;SDS011;11232;51.748;19.390;2023-07-24T04:31:12;11.93;;;4.70;;
22131;SDS011;11232;51.748;19.390;2023-07-24T04:33:38;7.15;;;4.35;;
22131;SDS011;11232;51.748;19.390;2023-07-24T04:36:04;6.20;;;4.30;;
22131;SDS011;11232;51.748;19.390;2023-07-24T04:38:30;6.32;;;4.35;;
22131;SDS011;11232;51.748;19.390;2023-07-24T04:40:56;10.10;;;4.18;;
22131;SDS011;11232;51.748;19.390;2023-07-24T04:43:22;8.45;;;4.40;;
22131;SDS011;11232;51.748;19.390;2023-07-24T04:45:48;9.80;;;4.20;;
22131;SDS011;11232;51.748;19.390;2023-07-24T04:48:14;8.95;;;4.50;;
22131;SDS011;11232;51.748;19.390;2023-07-24T04:50:40;7.90;;;4.47;;
22131;SDS011;11232;51.748;19.390;2023-07-24T04:53:06;5.20;;;4.18;;
22131;SDS011;11232;51.748;19.390;2023-07-24T04:55:32;10.85;;;4.40;;
22131;SDS011;11232;51.748;19.390;2023-07-24T04:57:58;4.85;;;3.90;;
22131;SDS011;11232;51.748;19.390;2023-07-24T05:00:24;10.18;;;4.32;;
22131;SDS011;11232;51.748;19.390;2023-07-24T05:02:51;11.98;;;4.68;;
22131;SDS011;11232;51.748;19.390;2023-07-24T05:05:17;8.93;;;4.65;;
22131;SDS011;11232;51.748;19.390;2023-07-24T05:07:43;6.85;;;4.32;;
22131;SDS011;11232;51.748;19.390;2023-07-24T05:10:09;8.05;;;4.28;;
22131;SDS011;11232;51.748;19.390;2023-07-24T05:12:35;6.32;;;4.25;;
22131;SDS011;11232;51.748;19.390;2023-07-24T05:15:01;6.20;;;3.88;;
22131;SDS011;11232;51.748;19.390;2023-07-24T05:17:27;6.82;;;3.78;;
22131;SDS011;11232;51.748;19.390;2023-07-24T05:19:53;8.55;;;4.10;;
22131;SDS011;11232;51.748;19.390;2023-07-24T05:22:19;11.77;;;4.32;;
22131;SDS011;11232;51.748;19.390;2023-07-24T05:24:45;7.18;;;3.90;;
22131;SDS011;11232;51.748;19.390;2023-07-24T05:27:11;6.07;;;3.80;;
22131;SDS011;11232;51.748;19.390;2023-07-24T05:29:37;8.05;;;4.43;;
22131;SDS011;11232;51.748;19.390;2023-07-24T05:32:03;11.07;;;3.95;;
22131;SDS011;11232;51.748;19.390;2023-07-24T05:34:29;5.82;;;3.85;;
22131;SDS011;11232;51.748;19.390;2023-07-24T05:36:55;11.20;;;3.78;;
22131;SDS011;11232;51.748;19.390;2023-07-24T05:39:21;4.15;;;3.45;;
22131;SDS011;11232;51.748;19.390;2023-07-24T05:41:47;8.15;;;4.03;;
22131;SDS011;11232;51.748;19.390;2023-07-24T05:44:13;8.07;;;3.70;;
22131;SDS011;11232;51.748;19.390;2023-07-24T05:46:39;9.45;;;3.63;;
22131;SDS011;11232;51.748;19.390;2023-07-24T05:49:05;9.15;;;3.80;;
22131;SDS011;11232;51.748;19.390;2023-07-24T05:51:31;7.20;;;3.80;;
22131;SDS011;11232;51.748;19.390;2023-07-24T05:53:57;8.50;;;4.03;;
22131;SDS011;11232;51.748;19.390;2023-07-24T05:56:23;7.72;;;3.58;;
22131;SDS011;11232;51.748;19.390;2023-07-24T05:58:49;5.93;;;3.47;;
22131;SDS011;11232;51.748;19.390;2023-07-24T06:01:15;7.38;;;3.65;;
22131;SDS011;11232;51.748;19.390;2023-07-24T06:03:41;7.95;;;4.13;;
22131;SDS011;11232;51.748;19.390;2023-07-24T06:06:07;6.60;;;3.50;;
22131;SDS011;11232;51.748;19.390;2023-07-24T06:08:33;9.82;;;3.58;;
22131;SDS011;11232;51.748;19.390;2023-07-24T06:10:59;6.20;;;3.95;;
22131;SDS011;11232;51.748;19.390;2023-07-24T06:13:25;8.48;;;3.45;;
22131;SDS011;11232;51.748;19.390;2023-07-24T06:15:51;8.98;;;3.28;;
22131;SDS011;11232;51.748;19.390;2023-07-24T06:18:18;6.65;;;3.40;;
22131;SDS011;11232;51.748;19.390;2023-07-24T06:20:44;6.45;;;3.03;;
22131;SDS011;11232;51.748;19.390;2023-07-24T06:23:10;6.07;;;3.03;;
22131;SDS011;11232;51.748;19.390;2023-07-24T06:25:36;3.90;;;2.67;;
22131;SDS011;11232;51.748;19.390;2023-07-24T06:28:02;5.80;;;2.95;;
22131;SDS011;11232;51.748;19.390;2023-07-24T06:30:28;4.05;;;3.00;;
22131;SDS011;11232;51.748;19.390;2023-07-24T06:32:54;6.35;;;2.80;;
22131;SDS011;11232;51.748;19.390;2023-07-24T06:35:23;5.00;;;2.55;;
22131;SDS011;11232;51.748;19.390;2023-07-24T06:37:49;5.93;;;2.97;;
22131;SDS011;11232;51.748;19.390;2023-07-24T06:40:15;5.07;;;2.67;;
22131;SDS011;11232;51.748;19.390;2023-07-24T06:42:41;3.75;;;2.45;;
22131;SDS011;11232;51.748;19.390;2023-07-24T06:45:07;3.40;;;2.53;;
22131;SDS011;11232;51.748;19.390;2023-07-24T06:47:33;4.60;;;2.70;;
22131;SDS011;11232;51.748;19.390;2023-07-24T06:49:59;4.50;;;2.53;;
22131;SDS011;11232;51.748;19.390;2023-07-24T06:52:25;3.58;;;2.30;;
22131;SDS011;11232;51.748;19.390;2023-07-24T06:54:51;5.22;;;2.20;;
22131;SDS011;11232;51.748;19.390;2023-07-24T06:57:17;2.83;;;2.38;;
22131;SDS011;11232;51.748;19.390;2023-07-24T06:59:43;6.85;;;3.28;;
22131;SDS011;11232;51.748;19.390;2023-07-24T07:02:09;5.22;;;2.88;;
22131;SDS011;11232;51.748;19.390;2023-07-24T07:04:35;4.30;;;2.42;;
22131;SDS011;11232;51.748;19.390;2023-07-24T07:07:01;5.38;;;2.60;;
22131;SDS011;11232;51.748;19.390;2023-07-24T07:09:27;4.55;;;2.80;;
22131;SDS011;11232;51.748;19.390;2023-07-24T07:11:53;4.03;;;2.85;;
22131;SDS011;11232;51.748;19.390;2023-07-24T07:14:19;4.63;;;2.90;;
22131;SDS011;11232;51.748;19.390;2023-07-24T07:16:45;3.25;;;2.40;;
22131;SDS011;11232;51.748;19.390;2023-07-24T07:19:12;4.60;;;2.53;;
22131;SDS011;11232;51.748;19.390;2023-07-24T07:21:38;3.70;;;2.47;;
22131;SDS011;11232;51.748;19.390;2023-07-24T07:24:04;3.30;;;2.38;;
22131;SDS011;11232;51.748;19.390;2023-07-24T07:26:30;3.88;;;2.70;;
22131;SDS011;11232;51.748;19.390;2023-07-24T07:28:56;3.80;;;2.30;;
22131;SDS011;11232;51.748;19.390;2023-07-24T07:31:22;6.20;;;2.63;;
22131;SDS011;11232;51.748;19.390;2023-07-24T07:33:48;5.03;;;2.38;;
22131;SDS011;11232;51.748;19.390;2023-07-24T07:36:14;3.40;;;2.58;;
22131;SDS011;11232;51.748;19.390;2023-07-24T07:38:40;3.65;;;2.30;;
22131;SDS011;11232;51.748;19.390;2023-07-24T07:41:06;8.80;;;2.45;;
22131;SDS011;11232;51.748;19.390;2023-07-24T07:43:32;2.65;;;2.33;;
22131;SDS011;11232;51.748;19.390;2023-07-24T07:45:59;6.38;;;2.67;;
22131;SDS011;11232;51.748;19.390;2023-07-24T07:48:25;4.93;;;2.45;;
22131;SDS011;11232;51.748;19.390;2023-07-24T07:50:51;4.25;;;2.75;;
22131;SDS011;11232;51.748;19.390;2023-07-24T07:53:17;2.85;;;2.40;;
22131;SDS011;11232;51.748;19.390;2023-07-24T07:55:43;7.13;;;2.63;;
22131;SDS011;11232;51.748;19.390;2023-07-24T07:58:09;8.05;;;2.63;;
22131;SDS011;11232;51.748;19.390;2023-07-24T08:00:35;5.35;;;2.75;;
22131;SDS011;11232;51.748;19.390;2023-07-24T08:03:04;3.35;;;2.60;;
22131;SDS011;11232;51.748;19.390;2023-07-24T08:05:30;4.13;;;2.63;;
22131;SDS011;11232;51.748;19.390;2023-07-24T08:07:57;4.80;;;3.05;;
22131;SDS011;11232;51.748;19.390;2023-07-24T08:10:23;6.88;;;2.75;;
22131;SDS011;11232;51.748;19.390;2023-07-24T08:12:49;9.50;;;3.08;;
22131;SDS011;11232;51.748;19.390;2023-07-24T08:15:15;5.00;;;2.45;;
22131;SDS011;11232;51.748;19.390;2023-07-24T08:17:41;3.58;;;2.50;;
22131;SDS011;11232;51.748;19.390;2023-07-24T08:20:07;5.15;;;2.78;;
22131;SDS011;11232;51.748;19.390;2023-07-24T08:22:33;5.97;;;2.88;;
22131;SDS011;11232;51.748;19.390;2023-07-24T08:24:59;4.93;;;2.60;;
22131;SDS011;11232;51.748;19.390;2023-07-24T08:27:25;5.85;;;2.60;;
22131;SDS011;11232;51.748;19.390;2023-07-24T08:29:51;6.22;;;2.85;;
22131;SDS011;11232;51.748;19.390;2023-07-24T08:32:20;3.75;;;2.42;;
22131;SDS011;11232;51.748;19.390;2023-07-24T08:34:46;6.60;;;2.80;;
22131;SDS011;11232;51.748;19.390;2023-07-24T08:37:13;5.40;;;2.75;;
22131;SDS011;11232;51.748;19.390;2023-07-24T08:39:39;4.95;;;3.10;;
22131;SDS011;11232;51.748;19.390;2023-07-24T08:42:12;4.95;;;3.00;;
22131;SDS011;11232;51.748;19.390;2023-07-24T08:44:38;5.65;;;3.35;;
22131;SDS011;11232;51.748;19.390;2023-07-24T08:47:04;6.88;;;3.03;;
22131;SDS011;11232;51.748;19.390;2023-07-24T08:49:32;6.38;;;3.00;;
22131;SDS011;11232;51.748;19.390;2023-07-24T08:51:59;6.00;;;3.15;;
22131;SDS011;11232;51.748;19.390;2023-07-24T08:54:26;12.15;;;3.50;;
22131;SDS011;11232;51.748;19.390;2023-07-24T08:56:52;4.40;;;3.22;;
22131;SDS011;11232;51.748;19.390;2023-07-24T08:59:20;7.00;;;3.22;;
22131;SDS011;11232;51.748;19.390;2023-07-24T09:01:46;4.45;;;3.05;;
22131;SDS011;11232;51.748;19.390;2023-07-24T09:04:12;5.00;;;3.03;;
22131;SDS011;11232;51.748;19.390;2023-07-24T09:06:38;4.68;;;3.00;;
22131;SDS011;11232;51.748;19.390;2023-07-24T09:09:14;5.53;;;3.67;;
22131;SDS011;11232;51.748;19.390;2023-07-24T09:11:50;6.38;;;3.45;;
22131;SDS011;11232;51.748;19.390;2023-07-24T09:14:23;10.75;;;3.58;;
22131;SDS011;11232;51.748;19.390;2023-07-24T09:17:03;8.63;;;3.40;;
22131;SDS011;11232;51.748;19.390;2023-07-24T09:19:29;3.35;;;2.95;;
22131;SDS011;11232;51.748;19.390;2023-07-24T09:21:55;5.40;;;3.35;;
22131;SDS011;11232;51.748;19.390;2023-07-24T09:24:21;10.00;;;3.90;;
22131;SDS011;11232;51.748;19.390;2023-07-24T09:26:50;7.03;;;3.00;;
22131;SDS011;11232;51.748;19.390;2023-07-24T09:29:17;6.28;;;3.47;;
22131;SDS011;11232;51.748;19.390;2023-07-24T09:31:43;4.10;;;3.20;;
22131;SDS011;11232;51.748;19.390;2023-07-24T09:34:16;4.35;;;3.35;;
22131;SDS011;11232;51.748;19.390;2023-07-24T09:36:43;4.80;;;3.38;;
22131;SDS011;11232;51.748;19.390;2023-07-24T09:39:09;5.25;;;3.20;;
22131;SDS011;11232;51.748;19.390;2023-07-24T09:41:39;5.85;;;3.70;;
22131;SDS011;11232;51.748;19.390;2023-07-24T09:44:05;9.45;;;3.30;;
22131;SDS011;11232;51.748;19.390;2023-07-24T09:46:32;3.90;;;3.05;;
22131;SDS011;11232;51.748;19.390;2023-07-24T09:48:58;5.35;;;3.67;;
22131;SDS011;11232;51.748;19.390;2023-07-24T09:51:24;5.50;;;3.72;;
22131;SDS011;11232;51.748;19.390;2023-07-24T09:53:55;4.45;;;3.38;;
22131;SDS011;11232;51.748;19.390;2023-07-24T09:56:21;5.28;;;3.40;;
22131;SDS011;11232;51.748;19.390;2023-07-24T09:58:48;4.20;;;3.33;;
22131;SDS011;11232;51.748;19.390;2023-07-24T10:01:19;4.55;;;3.67;;
22131;SDS011;11232;51.748;19.390;2023-07-24T10:03:49;3.97;;;3.58;;
22131;SDS011;11232;51.748;19.390;2023-07-24T10:06:15;3.80;;;3.03;;
22131;SDS011;11232;51.748;19.390;2023-07-24T10:08:42;5.05;;;3.35;;
22131;SDS011;11232;51.748;19.390;2023-07-24T10:11:11;4.45;;;3.45;;
22131;SDS011;11232;51.748;19.390;2023-07-24T10:13:37;4.43;;;3.50;;
22131;SDS011;11232;51.748;19.390;2023-07-24T10:16:03;7.55;;;4.18;;
22131;SDS011;11232;51.748;19.390;2023-07-24T10:18:32;4.60;;;3.55;;
22131;SDS011;11232;51.748;19.390;2023-07-24T10:21:01;5.20;;;3.40;;
22131;SDS011;11232;51.748;19.390;2023-07-24T10:23:28;6.55;;;3.70;;
22131;SDS011;11232;51.748;19.390;2023-07-24T10:25:54;4.45;;;3.40;;
22131;SDS011;11232;51.748;19.390;2023-07-24T10:28:29;4.60;;;3.40;;
22131;SDS011;11232;51.748;19.390;2023-07-24T10:30:55;4.38;;;3.50;;
22131;SDS011;11232;51.748;19.390;2023-07-24T10:33:24;4.45;;;3.28;;
22131;SDS011;11232;51.748;19.390;2023-07-24T10:35:54;4.32;;;3.42;;
22131;SDS011;11232;51.748;19.390;2023-07-24T10:38:31;4.55;;;3.38;;
22131;SDS011;11232;51.748;19.390;2023-07-24T10:41:01;4.25;;;3.35;;
22131;SDS011;11232;51.748;19.390;2023-07-24T10:43:27;4.18;;;3.33;;
22131;SDS011;11232;51.748;19.390;2023-07-24T10:45:53;6.28;;;3.40;;
22131;SDS011;11232;51.748;19.390;2023-07-24T10:48:20;6.10;;;4.15;;
22131;SDS011;11232;51.748;19.390;2023-07-24T10:50:47;5.25;;;3.60;;
22131;SDS011;11232;51.748;19.390;2023-07-24T10:53:15;4.85;;;3.75;;
22131;SDS011;11232;51.748;19.390;2023-07-24T10:55:44;5.20;;;4.10;;
22131;SDS011;11232;51.748;19.390;2023-07-24T10:58:11;7.32;;;3.85;;
22131;SDS011;11232;51.748;19.390;2023-07-24T11:00:40;4.18;;;3.40;;
22131;SDS011;11232;51.748;19.390;2023-07-24T11:03:10;6.63;;;3.47;;
22131;SDS011;11232;51.748;19.390;2023-07-24T11:05:39;5.82;;;3.50;;
22131;SDS011;11232;51.748;19.390;2023-07-24T11:08:15;5.80;;;3.58;;
22131;SDS011;11232;51.748;19.390;2023-07-24T11:10:49;4.97;;;3.47;;
22131;SDS011;11232;51.748;19.390;2023-07-24T11:13:15;5.93;;;4.10;;
22131;SDS011;11232;51.748;19.390;2023-07-24T11:15:42;5.22;;;3.78;;
22131;SDS011;11232;51.748;19.390;2023-07-24T11:18:08;4.50;;;3.42;;
22131;SDS011;11232;51.748;19.390;2023-07-24T11:20:47;7.13;;;3.58;;
22131;SDS011;11232;51.748;19.390;2023-07-24T11:23:13;3.70;;;3.22;;
22131;SDS011;11232;51.748;19.390;2023-07-24T11:25:40;5.60;;;3.72;;
22131;SDS011;11232;51.748;19.390;2023-07-24T11:28:15;4.70;;;3.20;;
22131;SDS011;11232;51.748;19.390;2023-07-24T11:30:41;4.05;;;3.38;;
22131;SDS011;11232;51.748;19.390;2023-07-24T11:33:09;5.68;;;3.45;;
22131;SDS011;11232;51.748;19.390;2023-07-24T11:35:36;4.00;;;3.20;;
22131;SDS011;11232;51.748;19.390;2023-07-24T11:38:04;5.22;;;3.50;;
22131;SDS011;11232;51.748;19.390;2023-07-24T11:40:34;5.70;;;3.70;;
22131;SDS011;11232;51.748;19.390;2023-07-24T11:43:01;5.18;;;3.60;;
22131;SDS011;11232;51.748;19.390;2023-07-24T11:45:29;5.82;;;3.55;;
22131;SDS011;11232;51.748;19.390;2023-07-24T11:47:55;5.90;;;3.20;;
22131;SDS011;11232;51.748;19.390;2023-07-24T11:50:21;5.13;;;3.13;;
22131;SDS011;11232;51.748;19.390;2023-07-24T11:52:49;5.25;;;3.50;;
22131;SDS011;11232;51.748;19.390;2023-07-24T11:55:15;5.22;;;3.60;;
22131;SDS011;11232;51.748;19.390;2023-07-24T11:57:42;8.07;;;3.72;;
22131;SDS011;11232;51.748;19.390;2023-07-24T12:00:18;6.50;;;3.30;;
22131;SDS011;11232;51.748;19.390;2023-07-24T12:02:44;8.77;;;3.10;;
22131;SDS011;11232;51.748;19.390;2023-07-24T12:05:10;6.82;;;3.60;;
22131;SDS011;11232;51.748;19.390;2023-07-24T12:07:36;6.32;;;3.22;;
22131;SDS011;11232;51.748;19.390;2023-07-24T12:10:03;4.15;;;3.53;;
22131;SDS011;11232;51.748;19.390;2023-07-24T12:12:39;7.60;;;3.30;;
22131;SDS011;11232;51.748;19.390;2023-07-24T12:15:05;5.90;;;3.50;;
22131;SDS011;11232;51.748;19.390;2023-07-24T12:17:31;8.13;;;3.33;;
22131;SDS011;11232;51.748;19.390;2023-07-24T12:19:57;8.32;;;4.05;;
22131;SDS011;11232;51.748;19.390;2023-07-24T12:22:23;4.57;;;3.80;;
22131;SDS011;11232;51.748;19.390;2023-07-24T12:24:49;5.82;;;3.40;;
22131;SDS011;11232;51.748;19.390;2023-07-24T12:27:15;7.10;;;3.65;;
22131;SDS011;11232;51.748;19.390;2023-07-24T12:29:41;11.25;;;3.63;;
22131;SDS011;11232;51.748;19.390;2023-07-24T12:32:07;6.75;;;4.40;;
22131;SDS011;11232;51.748;19.390;2023-07-24T12:34:33;5.70;;;4.03;;
22131;SDS011;11232;51.748;19.390;2023-07-24T12:36:59;6.13;;;3.90;;
22131;SDS011;11232;51.748;19.390;2023-07-24T12:39:25;7.30;;;3.65;;
22131;SDS011;11232;51.748;19.390;2023-07-24T12:41:51;5.35;;;3.75;;
22131;SDS011;11232;51.748;19.390;2023-07-24T12:44:17;5.53;;;4.00;;
22131;SDS011;11232;51.748;19.390;2023-07-24T12:46:43;7.90;;;4.45;;
22131;SDS011;11232;51.748;19.390;2023-07-24T12:49:09;5.43;;;3.97;;
22131;SDS011;11232;51.748;19.390;2023-07-24T12:51:35;6.82;;;4.00;;
22131;SDS011;11232;51.748;19.390;2023-07-24T12:54:01;7.72;;;4.10;;
22131;SDS011;11232;51.748;19.390;2023-07-24T12:56:27;6.22;;;3.97;;
22131;SDS011;11232;51.748;19.390;2023-07-24T12:58:53;4.97;;;4.30;;
22131;SDS011;11232;51.748;19.390;2023-07-24T13:01:19;7.78;;;4.18;;
22131;SDS011;11232;51.748;19.390;2023-07-24T13:03:45;8.65;;;5.00;;
22131;SDS011;11232;51.748;19.390;2023-07-24T13:06:11;6.40;;;4.55;;
22131;SDS011;11232;51.748;19.390;2023-07-24T13:08:37;7.25;;;4.57;;
22131;SDS011;11232;51.748;19.390;2023-07-24T13:11:03;11.98;;;4.90;;
22131;SDS011;11232;51.748;19.390;2023-07-24T13:13:29;5.70;;;4.20;;
22131;SDS011;11232;51.748;19.390;2023-07-24T13:15:55;7.25;;;4.68;;
22131;SDS011;11232;51.748;19.390;2023-07-24T13:18:21;6.63;;;4.50;;
22131;SDS011;11232;51.748;19.390;2023-07-24T13:20:47;5.82;;;4.28;;
22131;SDS011;11232;51.748;19.390;2023-07-24T13:23:13;8.13;;;4.65;;
22131;SDS011;11232;51.748;19.390;2023-07-24T13:25:39;6.15;;;4.38;;
22131;SDS011;11232;51.748;19.390;2023-07-24T13:28:05;5.00;;;4.13;;
22131;SDS011;11232;51.748;19.390;2023-07-24T13:30:31;9.18;;;5.05;;
22131;SDS011;11232;51.748;19.390;2023-07-24T13:32:57;9.55;;;4.63;;
22131;SDS011;11232;51.748;19.390;2023-07-24T13:35:23;7.65;;;4.70;;
22131;SDS011;11232;51.748;19.390;2023-07-24T13:37:49;9.52;;;4.97;;
22131;SDS011;11232;51.748;19.390;2023-07-24T13:40:15;7.25;;;4.30;;
22131;SDS011;11232;51.748;19.390;2023-07-24T13:42:41;8.52;;;4.82;;
22131;SDS011;11232;51.748;19.390;2023-07-24T13:45:07;4.97;;;3.97;;
22131;SDS011;11232;51.748;19.390;2023-07-24T13:47:33;9.57;;;4.97;;
22131;SDS011;11232;51.748;19.390;2023-07-24T13:49:59;9.30;;;4.97;;
22131;SDS011;11232;51.748;19.390;2023-07-24T13:52:28;6.82;;;4.68;;
22131;SDS011;11232;51.748;19.390;2023-07-24T13:54:54;8.30;;;4.97;;
22131;SDS011;11232;51.748;19.390;2023-07-24T13:57:20;7.90;;;4.75;;
22131;SDS011;11232;51.748;19.390;2023-07-24T13:59:46;7.00;;;4.80;;
22131;SDS011;11232;51.748;19.390;2023-07-24T14:02:12;7.50;;;4.80;;
22131;SDS011;11232;51.748;19.390;2023-07-24T14:04:38;6.65;;;4.75;;
22131;SDS011;11232;51.748;19.390;2023-07-24T14:07:04;7.93;;;5.75;;
22131;SDS011;11232;51.748;19.390;2023-07-24T14:09:30;8.60;;;4.90;;
22131;SDS011;11232;51.748;19.390;2023-07-24T14:11:58;6.78;;;5.03;;
22131;SDS011;11232;51.748;19.390;2023-07-24T14:14:23;8.30;;;5.20;;
22131;SDS011;11232;51.748;19.390;2023-07-24T14:16:50;8.68;;;5.10;;
22131;SDS011;11232;51.748;19.390;2023-07-24T14:19:16;11.45;;;5.43;;
22131;SDS011;11232;51.748;19.390;2023-07-24T14:21:42;8.60;;;5.00;;
22131;SDS011;11232;51.748;19.390;2023-07-24T14:24:08;12.75;;;5.38;;
22131;SDS011;11232;51.748;19.390;2023-07-24T14:26:34;7.13;;;5.18;;
22131;SDS011;11232;51.748;19.390;2023-07-24T14:29:02;7.47;;;5.13;;
22131;SDS011;11232;51.748;19.390;2023-07-24T14:31:28;5.95;;;4.57;;
22131;SDS011;11232;51.748;19.390;2023-07-24T14:33:54;9.10;;;5.10;;
22131;SDS011;11232;51.748;19.390;2023-07-24T14:36:20;11.30;;;4.93;;
22131;SDS011;11232;51.748;19.390;2023-07-24T14:38:46;8.35;;;5.28;;